sensor_id;sensor_type;location;lat;lon;timestamp;P1;durP1;ratioP1;P2;durP2;ratioP2
27796;SDS011;15177;50.844;4.412;2023-06-26T00:01:00;8.82;;;4.85;;
27796;SDS011;15177;50.844;4.412;2023-06-26T00:03:26;11.48;;;5.95;;
27796;SDS011;15177;50.844;4.412;2023-06-26T00:05:53;7.72;;;5.22;;
27796;SDS011;15177;50.844;4.412;2023-06-26T00:08:19;8.93;;;5.60;;
27796;SDS011;15177;50.844;4.412;2023-06-26T00:10:45;8.38;;;5.45;;
27796;SDS011;15177;50.844;4.412;2023-06-26T00:13:14;9.10;;;5.70;;
27796;SDS011;15177;50.844;4.412;2023-06-26T00:15:41;9.10;;;5.35;;
27796;SDS011;15177;50.844;4.412;2023-06-26T00:18:06;8.95;;;4.85;;
27796;SDS011;15177;50.844;4.412;2023-06-26T00:20:34;13.20;;;5.40;;
27796;SDS011;15177;50.844;4.412;2023-06-26T00:23:01;7.47;;;4.75;;
27796;SDS011;15177;50.844;4.412;2023-06-26T00:25:33;10.25;;;5.10;;
27796;SDS011;15177;50.844;4.412;2023-06-26T00:27:59;6.03;;;4.35;;
27796;SDS011;15177;50.844;4.412;2023-06-26T00:30:25;7.93;;;4.35;;
27796;SDS011;15177;50.844;4.412;2023-06-26T00:32:50;6.90;;;4.80;;
27796;SDS011;15177;50.844;4.412;2023-06-26T00:35:17;6.60;;;4.50;;
27796;SDS011;15177;50.844;4.412;2023-06-26T00:37:43;7.65;;;4.50;;
27796;SDS011;15177;50.844;4.412;2023-06-26T00:40:10;11.98;;;5.18;;
27796;SDS011;15177;50.844;4.412;2023-06-26T00:42:38;8.50;;;5.07;;
27796;SDS011;15177;50.844;4.412;2023-06-26T00:45:08;7.90;;;4.35;;
27796;SDS011;15177;50.844;4.412;2023-06-26T00:47:33;8.23;;;4.38;;
27796;SDS011;15177;50.844;4.412;2023-06-26T00:49:59;6.47;;;3.80;;
27796;SDS011;15177;50.844;4.412;2023-06-26T00:52:25;7.07;;;4.47;;
27796;SDS011;15177;50.844;4.412;2023-06-26T00:54:51;5.32;;;3.92;;
27796;SDS011;15177;50.844;4.412;2023-06-26T00:57:18;9.27;;;4.00;;
27796;SDS011;15177;50.844;4.412;2023-06-26T00:59:44;6.25;;;3.95;;
27796;SDS011;15177;50.844;4.412;2023-06-26T01:02:10;8.88;;;4.43;;
27796;SDS011;15177;50.844;4.412;2023-06-26T01:04:36;9.13;;;4.40;;
27796;SDS011;15177;50.844;4.412;2023-06-26T01:07:02;6.35;;;4.30;;
27796;SDS011;15177;50.844;4.412;2023-06-26T01:09:28;11.07;;;4.50;;
27796;SDS011;15177;50.844;4.412;2023-06-26T01:11:56;7.97;;;4.03;;
27796;SDS011;15177;50.844;4.412;2023-06-26T01:14:23;8.20;;;3.30;;
27796;SDS011;15177;50.844;4.412;2023-06-26T01:16:50;7.43;;;3.60;;
27796;SDS011;15177;50.844;4.412;2023-06-26T01:19:23;9.07;;;3.55;;
27796;SDS011;15177;50.844;4.412;2023-06-26T01:22:10;8.75;;;3.80;;
27796;SDS011;15177;50.844;4.412;2023-06-26T01:24:42;7.63;;;3.35;;
27796;SDS011;15177;50.844;4.412;2023-06-26T01:27:17;10.85;;;3.70;;
27796;SDS011;15177;50.844;4.412;2023-06-26T01:29:47;7.47;;;3.75;;
27796;SDS011;15177;50.844;4.412;2023-06-26T01:32:14;8.70;;;3.40;;
27796;SDS011;15177;50.844;4.412;2023-06-26T01:34:40;6.35;;;3.80;;
27796;SDS011;15177;50.844;4.412;2023-06-26T01:37:08;7.72;;;4.07;;
27796;SDS011;15177;50.844;4.412;2023-06-26T01:39:35;8.88;;;4.45;;
27796;SDS011;15177;50.844;4.412;2023-06-26T01:42:00;10.05;;;3.75;;
27796;SDS011;15177;50.844;4.412;2023-06-26T01:44:28;9.05;;;3.90;;
27796;SDS011;15177;50.844;4.412;2023-06-26T01:47:04;10.10;;;3.55;;
27796;SDS011;15177;50.844;4.412;2023-06-26T01:54:58;10.40;;;4.35;;
27796;SDS011;15177;50.844;4.412;2023-06-26T01:57:34;11.23;;;3.83;;
27796;SDS011;15177;50.844;4.412;2023-06-26T02:00:01;5.78;;;3.58;;
27796;SDS011;15177;50.844;4.412;2023-06-26T02:02:30;16.40;;;4.35;;
27796;SDS011;15177;50.844;4.412;2023-06-26T02:04:57;8.68;;;3.92;;
27796;SDS011;15177;50.844;4.412;2023-06-26T02:07:23;10.15;;;3.90;;
27796;SDS011;15177;50.844;4.412;2023-06-26T02:09:49;7.40;;;4.07;;
27796;SDS011;15177;50.844;4.412;2023-06-26T02:12:14;7.65;;;3.83;;
27796;SDS011;15177;50.844;4.412;2023-06-26T02:14:41;10.20;;;4.45;;
27796;SDS011;15177;50.844;4.412;2023-06-26T02:17:07;5.47;;;3.65;;
27796;SDS011;15177;50.844;4.412;2023-06-26T02:19:33;10.82;;;4.07;;
27796;SDS011;15177;50.844;4.412;2023-06-26T02:21:59;11.85;;;4.30;;
27796;SDS011;15177;50.844;4.412;2023-06-26T02:24:25;9.35;;;4.10;;
27796;SDS011;15177;50.844;4.412;2023-06-26T02:26:54;14.70;;;5.47;;
27796;SDS011;15177;50.844;4.412;2023-06-26T02:29:22;12.45;;;4.07;;
27796;SDS011;15177;50.844;4.412;2023-06-26T02:31:48;9.38;;;4.13;;
27796;SDS011;15177;50.844;4.412;2023-06-26T02:34:14;14.43;;;5.43;;
27796;SDS011;15177;50.844;4.412;2023-06-26T02:36:40;11.52;;;4.45;;
27796;SDS011;15177;50.844;4.412;2023-06-26T02:39:06;10.65;;;4.88;;
27796;SDS011;15177;50.844;4.412;2023-06-26T02:41:32;8.57;;;3.83;;
27796;SDS011;15177;50.844;4.412;2023-06-26T02:43:58;11.25;;;4.47;;
27796;SDS011;15177;50.844;4.412;2023-06-26T02:46:23;13.55;;;5.28;;
27796;SDS011;15177;50.844;4.412;2023-06-26T02:48:49;9.70;;;3.88;;
27796;SDS011;15177;50.844;4.412;2023-06-26T02:51:16;16.08;;;5.07;;
27796;SDS011;15177;50.844;4.412;2023-06-26T02:53:42;10.75;;;4.40;;
27796;SDS011;15177;50.844;4.412;2023-06-26T02:56:08;12.50;;;4.75;;
27796;SDS011;15177;50.844;4.412;2023-06-26T02:58:33;8.55;;;4.32;;
27796;SDS011;15177;50.844;4.412;2023-06-26T03:01:00;11.65;;;5.03;;
27796;SDS011;15177;50.844;4.412;2023-06-26T03:03:27;17.80;;;5.60;;
27796;SDS011;15177;50.844;4.412;2023-06-26T03:05:53;12.88;;;4.05;;
27796;SDS011;15177;50.844;4.412;2023-06-26T03:08:19;12.20;;;4.55;;
27796;SDS011;15177;50.844;4.412;2023-06-26T03:10:44;9.50;;;4.85;;
27796;SDS011;15177;50.844;4.412;2023-06-26T03:13:10;17.17;;;5.88;;
27796;SDS011;15177;50.844;4.412;2023-06-26T03:15:37;13.48;;;4.70;;
27796;SDS011;15177;50.844;4.412;2023-06-26T03:18:04;14.90;;;4.57;;
27796;SDS011;15177;50.844;4.412;2023-06-26T03:20:31;16.98;;;5.13;;
27796;SDS011;15177;50.844;4.412;2023-06-26T03:22:57;13.25;;;5.72;;
27796;SDS011;15177;50.844;4.412;2023-06-26T03:25:25;12.45;;;5.53;;
27796;SDS011;15177;50.844;4.412;2023-06-26T03:27:51;11.90;;;4.63;;
27796;SDS011;15177;50.844;4.412;2023-06-26T03:30:17;14.60;;;5.63;;
27796;SDS011;15177;50.844;4.412;2023-06-26T03:32:44;8.75;;;5.25;;
27796;SDS011;15177;50.844;4.412;2023-06-26T03:35:12;15.60;;;4.68;;
27796;SDS011;15177;50.844;4.412;2023-06-26T03:37:38;19.38;;;6.35;;
27796;SDS011;15177;50.844;4.412;2023-06-26T03:40:04;15.52;;;5.22;;
27796;SDS011;15177;50.844;4.412;2023-06-26T03:42:30;10.35;;;5.38;;
27796;SDS011;15177;50.844;4.412;2023-06-26T03:44:56;15.95;;;4.90;;
27796;SDS011;15177;50.844;4.412;2023-06-26T03:47:23;14.02;;;5.15;;
27796;SDS011;15177;50.844;4.412;2023-06-26T03:49:49;15.02;;;6.03;;
27796;SDS011;15177;50.844;4.412;2023-06-26T03:52:14;17.30;;;4.95;;
27796;SDS011;15177;50.844;4.412;2023-06-26T03:54:41;17.90;;;5.47;;
27796;SDS011;15177;50.844;4.412;2023-06-26T03:57:08;15.95;;;5.50;;
27796;SDS011;15177;50.844;4.412;2023-06-26T03:59:34;14.85;;;5.32;;
27796;SDS011;15177;50.844;4.412;2023-06-26T04:02:01;16.73;;;5.35;;
27796;SDS011;15177;50.844;4.412;2023-06-26T04:04:27;18.33;;;6.65;;
27796;SDS011;15177;50.844;4.412;2023-06-26T04:06:53;20.98;;;5.85;;
27796;SDS011;15177;50.844;4.412;2023-06-26T04:09:18;23.75;;;5.60;;
27796;SDS011;15177;50.844;4.412;2023-06-26T04:11:44;21.55;;;5.00;;
27796;SDS011;15177;50.844;4.412;2023-06-26T04:14:10;17.52;;;6.13;;
27796;SDS011;15177;50.844;4.412;2023-06-26T04:16:36;14.43;;;4.80;;
27796;SDS011;15177;50.844;4.412;2023-06-26T04:19:02;19.17;;;5.20;;
27796;SDS011;15177;50.844;4.412;2023-06-26T04:21:30;16.08;;;4.50;;
27796;SDS011;15177;50.844;4.412;2023-06-26T04:23:56;20.45;;;5.88;;
27796;SDS011;15177;50.844;4.412;2023-06-26T04:26:23;18.80;;;5.07;;
27796;SDS011;15177;50.844;4.412;2023-06-26T04:28:49;16.83;;;5.35;;
27796;SDS011;15177;50.844;4.412;2023-06-26T04:31:14;19.67;;;4.93;;
27796;SDS011;15177;50.844;4.412;2023-06-26T04:33:40;21.55;;;6.45;;
27796;SDS011;15177;50.844;4.412;2023-06-26T04:36:07;17.58;;;5.05;;
27796;SDS011;15177;50.844;4.412;2023-06-26T04:38:34;13.57;;;4.80;;
27796;SDS011;15177;50.844;4.412;2023-06-26T04:41:00;17.25;;;4.65;;
27796;SDS011;15177;50.844;4.412;2023-06-26T04:43:28;13.20;;;4.45;;
27796;SDS011;15177;50.844;4.412;2023-06-26T04:45:54;15.43;;;4.43;;
27796;SDS011;15177;50.844;4.412;2023-06-26T04:48:23;18.40;;;4.15;;
27796;SDS011;15177;50.844;4.412;2023-06-26T04:50:49;15.60;;;4.25;;
27796;SDS011;15177;50.844;4.412;2023-06-26T04:53:18;15.70;;;4.43;;
27796;SDS011;15177;50.844;4.412;2023-06-26T04:55:45;17.23;;;4.82;;
27796;SDS011;15177;50.844;4.412;2023-06-26T04:58:14;22.55;;;4.75;;
27796;SDS011;15177;50.844;4.412;2023-06-26T05:00:43;19.35;;;4.88;;
27796;SDS011;15177;50.844;4.412;2023-06-26T05:03:09;20.40;;;5.10;;
27796;SDS011;15177;50.844;4.412;2023-06-26T05:05:37;20.60;;;4.50;;
27796;SDS011;15177;50.844;4.412;2023-06-26T05:08:13;19.33;;;4.88;;
27796;SDS011;15177;50.844;4.412;2023-06-26T05:10:39;12.50;;;3.92;;
27796;SDS011;15177;50.844;4.412;2023-06-26T05:13:05;13.10;;;4.38;;
27796;SDS011;15177;50.844;4.412;2023-06-26T05:15:31;19.75;;;4.43;;
27796;SDS011;15177;50.844;4.412;2023-06-26T05:17:57;15.63;;;4.30;;
27796;SDS011;15177;50.844;4.412;2023-06-26T05:20:23;14.32;;;4.30;;
27796;SDS011;15177;50.844;4.412;2023-06-26T05:22:49;16.63;;;4.03;;
27796;SDS011;15177;50.844;4.412;2023-06-26T05:25:14;15.05;;;3.63;;
27796;SDS011;15177;50.844;4.412;2023-06-26T05:27:42;13.23;;;3.65;;
27796;SDS011;15177;50.844;4.412;2023-06-26T05:30:09;17.92;;;4.13;;
27796;SDS011;15177;50.844;4.412;2023-06-26T05:32:38;13.75;;;3.92;;
27796;SDS011;15177;50.844;4.412;2023-06-26T05:35:05;15.18;;;4.18;;
27796;SDS011;15177;50.844;4.412;2023-06-26T05:37:32;19.27;;;4.75;;
27796;SDS011;15177;50.844;4.412;2023-06-26T05:39:59;13.57;;;3.42;;
27796;SDS011;15177;50.844;4.412;2023-06-26T05:42:26;14.00;;;3.47;;
27796;SDS011;15177;50.844;4.412;2023-06-26T05:44:53;14.63;;;3.33;;
27796;SDS011;15177;50.844;4.412;2023-06-26T05:47:19;16.15;;;3.92;;
27796;SDS011;15177;50.844;4.412;2023-06-26T05:49:45;16.73;;;3.28;;
27796;SDS011;15177;50.844;4.412;2023-06-26T05:52:11;10.18;;;3.25;;
27796;SDS011;15177;50.844;4.412;2023-06-26T05:54:37;10.65;;;4.00;;
27796;SDS011;15177;50.844;4.412;2023-06-26T05:57:04;11.57;;;3.20;;
27796;SDS011;15177;50.844;4.412;2023-06-26T05:59:31;11.93;;;3.28;;
27796;SDS011;15177;50.844;4.412;2023-06-26T06:01:57;14.40;;;3.83;;
27796;SDS011;15177;50.844;4.412;2023-06-26T06:04:26;10.57;;;2.65;;
27796;SDS011;15177;50.844;4.412;2023-06-26T06:06:53;10.65;;;2.92;;
27796;SDS011;15177;50.844;4.412;2023-06-26T06:09:21;17.10;;;3.28;;
27796;SDS011;15177;50.844;4.412;2023-06-26T06:11:47;9.70;;;2.80;;
27796;SDS011;15177;50.844;4.412;2023-06-26T06:14:13;15.82;;;3.22;;
27796;SDS011;15177;50.844;4.412;2023-06-26T06:16:39;12.23;;;3.75;;
27796;SDS011;15177;50.844;4.412;2023-06-26T06:19:05;10.00;;;2.90;;
27796;SDS011;15177;50.844;4.412;2023-06-26T06:21:36;10.68;;;2.75;;
27796;SDS011;15177;50.844;4.412;2023-06-26T06:24:02;12.90;;;2.72;;
27796;SDS011;15177;50.844;4.412;2023-06-26T06:26:28;11.35;;;2.67;;
27796;SDS011;15177;50.844;4.412;2023-06-26T06:28:53;18.15;;;3.75;;
27796;SDS011;15177;50.844;4.412;2023-06-26T06:31:19;16.08;;;3.33;;
27796;SDS011;15177;50.844;4.412;2023-06-26T06:33:46;11.60;;;2.72;;
27796;SDS011;15177;50.844;4.412;2023-06-26T06:36:14;12.95;;;3.55;;
27796;SDS011;15177;50.844;4.412;2023-06-26T06:38:43;11.30;;;2.80;;
27796;SDS011;15177;50.844;4.412;2023-06-26T06:41:10;9.48;;;2.38;;
27796;SDS011;15177;50.844;4.412;2023-06-26T06:43:37;9.02;;;2.22;;
27796;SDS011;15177;50.844;4.412;2023-06-26T06:46:04;8.20;;;2.42;;
27796;SDS011;15177;50.844;4.412;2023-06-26T06:48:35;8.25;;;2.53;;
27796;SDS011;15177;50.844;4.412;2023-06-26T06:51:01;7.22;;;2.38;;
27796;SDS011;15177;50.844;4.412;2023-06-26T06:53:28;8.77;;;2.53;;
27796;SDS011;15177;50.844;4.412;2023-06-26T06:55:54;10.93;;;2.53;;
27796;SDS011;15177;50.844;4.412;2023-06-26T06:58:20;12.85;;;2.65;;
27796;SDS011;15177;50.844;4.412;2023-06-26T07:00:45;10.27;;;2.58;;
27796;SDS011;15177;50.844;4.412;2023-06-26T07:03:11;8.95;;;2.22;;
27796;SDS011;15177;50.844;4.412;2023-06-26T07:05:37;10.52;;;2.65;;
27796;SDS011;15177;50.844;4.412;2023-06-26T07:08:03;7.63;;;2.13;;
27796;SDS011;15177;50.844;4.412;2023-06-26T07:10:29;7.55;;;2.42;;
27796;SDS011;15177;50.844;4.412;2023-06-26T07:12:55;7.07;;;2.28;;
27796;SDS011;15177;50.844;4.412;2023-06-26T07:15:20;6.93;;;1.98;;
27796;SDS011;15177;50.844;4.412;2023-06-26T07:17:48;15.20;;;2.55;;
27796;SDS011;15177;50.844;4.412;2023-06-26T07:20:15;6.57;;;2.35;;
27796;SDS011;15177;50.844;4.412;2023-06-26T07:22:42;13.18;;;2.40;;
27796;SDS011;15177;50.844;4.412;2023-06-26T07:25:12;10.15;;;2.45;;
27796;SDS011;15177;50.844;4.412;2023-06-26T07:27:44;10.38;;;2.42;;
27796;SDS011;15177;50.844;4.412;2023-06-26T07:30:14;6.05;;;2.20;;
27796;SDS011;15177;50.844;4.412;2023-06-26T07:32:39;6.47;;;2.10;;
27796;SDS011;15177;50.844;4.412;2023-06-26T07:35:07;7.22;;;2.03;;
27796;SDS011;15177;50.844;4.412;2023-06-26T07:37:32;7.22;;;2.33;;
27796;SDS011;15177;50.844;4.412;2023-06-26T07:39:59;7.57;;;2.15;;
27796;SDS011;15177;50.844;4.412;2023-06-26T07:42:24;7.05;;;2.10;;
27796;SDS011;15177;50.844;4.412;2023-06-26T07:44:50;8.13;;;2.30;;
27796;SDS011;15177;50.844;4.412;2023-06-26T07:47:16;9.52;;;2.55;;
27796;SDS011;15177;50.844;4.412;2023-06-26T07:49:41;7.90;;;2.10;;
27796;SDS011;15177;50.844;4.412;2023-06-26T07:52:07;8.27;;;1.95;;
27796;SDS011;15177;50.844;4.412;2023-06-26T07:54:36;9.50;;;2.67;;
27796;SDS011;15177;50.844;4.412;2023-06-26T07:57:04;6.78;;;2.10;;
27796;SDS011;15177;50.844;4.412;2023-06-26T07:59:35;7.13;;;1.98;;
27796;SDS011;15177;50.844;4.412;2023-06-26T08:02:01;7.68;;;2.40;;
27796;SDS011;15177;50.844;4.412;2023-06-26T08:04:27;9.10;;;2.55;;
27796;SDS011;15177;50.844;4.412;2023-06-26T08:06:56;7.57;;;2.22;;
27796;SDS011;15177;50.844;4.412;2023-06-26T08:09:25;6.30;;;1.65;;
27796;SDS011;15177;50.844;4.412;2023-06-26T08:11:52;10.60;;;1.90;;
27796;SDS011;15177;50.844;4.412;2023-06-26T08:14:18;7.28;;;2.05;;
27796;SDS011;15177;50.844;4.412;2023-06-26T08:16:46;7.05;;;2.38;;
27796;SDS011;15177;50.844;4.412;2023-06-26T08:19:14;5.20;;;1.73;;
27796;SDS011;15177;50.844;4.412;2023-06-26T08:21:40;8.30;;;2.15;;
27796;SDS011;15177;50.844;4.412;2023-06-26T08:24:07;8.52;;;1.70;;
27796;SDS011;15177;50.844;4.412;2023-06-26T08:26:34;4.82;;;1.70;;
27796;SDS011;15177;50.844;4.412;2023-06-26T08:29:02;6.15;;;1.90;;
27796;SDS011;15177;50.844;4.412;2023-06-26T08:31:36;7.95;;;1.70;;
27796;SDS011;15177;50.844;4.412;2023-06-26T08:34:03;6.18;;;1.85;;
27796;SDS011;15177;50.844;4.412;2023-06-26T08:36:29;7.40;;;2.10;;
27796;SDS011;15177;50.844;4.412;2023-06-26T08:38:55;5.90;;;1.38;;
27796;SDS011;15177;50.844;4.412;2023-06-26T08:41:21;6.28;;;1.90;;
27796;SDS011;15177;50.844;4.412;2023-06-26T08:43:48;5.93;;;1.80;;
27796;SDS011;15177;50.844;4.412;2023-06-26T08:46:17;5.32;;;1.80;;
27796;SDS011;15177;50.844;4.412;2023-06-26T08:48:57;6.63;;;1.85;;
27796;SDS011;15177;50.844;4.412;2023-06-26T08:51:28;8.25;;;1.70;;
27796;SDS011;15177;50.844;4.412;2023-06-26T08:53:57;6.30;;;1.75;;
27796;SDS011;15177;50.844;4.412;2023-06-26T08:56:27;4.25;;;1.80;;
27796;SDS011;15177;50.844;4.412;2023-06-26T08:58:58;5.82;;;1.48;;
27796;SDS011;15177;50.844;4.412;2023-06-26T09:01:24;6.18;;;1.73;;
27796;SDS011;15177;50.844;4.412;2023-06-26T09:03:50;6.50;;;1.70;;
27796;SDS011;15177;50.844;4.412;2023-06-26T09:06:16;5.63;;;1.95;;
27796;SDS011;15177;50.844;4.412;2023-06-26T09:08:44;7.43;;;2.10;;
27796;SDS011;15177;50.844;4.412;2023-06-26T09:11:09;7.43;;;1.60;;
27796;SDS011;15177;50.844;4.412;2023-06-26T09:13:35;4.57;;;1.40;;
27796;SDS011;15177;50.844;4.412;2023-06-26T09:16:04;3.10;;;1.50;;
27796;SDS011;15177;50.844;4.412;2023-06-26T09:18:33;4.82;;;1.50;;
27796;SDS011;15177;50.844;4.412;2023-06-26T09:20:59;3.05;;;1.55;;
27796;SDS011;15177;50.844;4.412;2023-06-26T09:23:25;8.82;;;2.03;;
27796;SDS011;15177;50.844;4.412;2023-06-26T09:25:51;8.18;;;1.70;;
27796;SDS011;15177;50.844;4.412;2023-06-26T09:28:17;4.75;;;1.42;;
27796;SDS011;15177;50.844;4.412;2023-06-26T09:30:44;7.63;;;1.95;;
27796;SDS011;15177;50.844;4.412;2023-06-26T09:33:18;5.70;;;1.92;;
27796;SDS011;15177;50.844;4.412;2023-06-26T09:35:44;6.90;;;1.63;;
27796;SDS011;15177;50.844;4.412;2023-06-26T09:38:11;5.00;;;1.83;;
27796;SDS011;15177;50.844;4.412;2023-06-26T09:40:38;5.40;;;1.70;;
27796;SDS011;15177;50.844;4.412;2023-06-26T09:43:04;4.68;;;2.28;;
27796;SDS011;15177;50.844;4.412;2023-06-26T09:45:37;5.05;;;2.35;;
27796;SDS011;15177;50.844;4.412;2023-06-26T09:48:06;5.90;;;1.90;;
27796;SDS011;15177;50.844;4.412;2023-06-26T09:50:37;3.40;;;1.77;;
27796;SDS011;15177;50.844;4.412;2023-06-26T09:53:12;6.10;;;2.25;;
27796;SDS011;15177;50.844;4.412;2023-06-26T09:55:39;5.35;;;1.60;;
27796;SDS011;15177;50.844;4.412;2023-06-26T09:58:10;5.50;;;1.90;;
27796;SDS011;15177;50.844;4.412;2023-06-26T10:00:43;7.10;;;1.60;;
27796;SDS011;15177;50.844;4.412;2023-06-26T10:03:10;6.57;;;2.08;;
27796;SDS011;15177;50.844;4.412;2023-06-26T10:05:38;6.28;;;1.90;;
27796;SDS011;15177;50.844;4.412;2023-06-26T10:08:12;8.00;;;2.00;;
27796;SDS011;15177;50.844;4.412;2023-06-26T10:10:42;8.38;;;2.08;;
27796;SDS011;15177;50.844;4.412;2023-06-26T10:13:21;4.90;;;1.60;;
27796;SDS011;15177;50.844;4.412;2023-06-26T10:15:50;6.18;;;1.67;;
27796;SDS011;15177;50.844;4.412;2023-06-26T10:18:17;5.90;;;1.55;;
27796;SDS011;15177;50.844;4.412;2023-06-26T10:20:47;3.85;;;1.70;;
27796;SDS011;15177;50.844;4.412;2023-06-26T10:23:14;9.32;;;1.60;;
27796;SDS011;15177;50.844;4.412;2023-06-26T10:25:42;4.57;;;1.40;;
27796;SDS011;15177;50.844;4.412;2023-06-26T10:28:10;5.45;;;1.85;;
27796;SDS011;15177;50.844;4.412;2023-06-26T10:30:39;7.88;;;1.73;;
27796;SDS011;15177;50.844;4.412;2023-06-26T10:33:07;2.97;;;1.40;;
27796;SDS011;15177;50.844;4.412;2023-06-26T10:35:40;7.28;;;1.63;;
27796;SDS011;15177;50.844;4.412;2023-06-26T10:38:10;7.07;;;2.03;;
27796;SDS011;15177;50.844;4.412;2023-06-26T10:40:42;8.10;;;2.13;;
27796;SDS011;15177;50.844;4.412;2023-06-26T10:43:14;6.35;;;1.70;;
27796;SDS011;15177;50.844;4.412;2023-06-26T10:45:44;6.15;;;1.85;;
27796;SDS011;15177;50.844;4.412;2023-06-26T10:48:21;5.03;;;1.55;;
27796;SDS011;15177;50.844;4.412;2023-06-26T10:50:47;8.38;;;1.60;;
27796;SDS011;15177;50.844;4.412;2023-06-26T10:56:04;9.75;;;1.50;;
27796;SDS011;15177;50.844;4.412;2023-06-26T11:01:21;8.60;;;2.08;;
27796;SDS011;15177;50.844;4.412;2023-06-26T11:03:48;7.35;;;2.08;;
27796;SDS011;15177;50.844;4.412;2023-06-26T11:06:26;5.50;;;1.92;;
27796;SDS011;15177;50.844;4.412;2023-06-26T11:09:26;5.05;;;1.73;;
27796;SDS011;15177;50.844;4.412;2023-06-26T11:14:18;4.53;;;1.73;;
27796;SDS011;15177;50.844;4.412;2023-06-26T11:16:44;7.68;;;2.28;;
27796;SDS011;15177;50.844;4.412;2023-06-26T11:19:10;7.65;;;2.28;;
27796;SDS011;15177;50.844;4.412;2023-06-26T11:21:37;4.07;;;2.08;;
27796;SDS011;15177;50.844;4.412;2023-06-26T11:24:04;9.38;;;2.33;;
27796;SDS011;15177;50.844;4.412;2023-06-26T11:26:31;4.22;;;2.10;;
27796;SDS011;15177;50.844;4.412;2023-06-26T11:29:03;5.90;;;2.35;;
27796;SDS011;15177;50.844;4.412;2023-06-26T11:31:31;5.85;;;1.75;;
27796;SDS011;15177;50.844;4.412;2023-06-26T11:34:03;7.40;;;2.50;;
27796;SDS011;15177;50.844;4.412;2023-06-26T11:36:33;10.68;;;2.67;;
27796;SDS011;15177;50.844;4.412;2023-06-26T11:39:02;7.93;;;3.30;;
27796;SDS011;15177;50.844;4.412;2023-06-26T11:41:32;9.23;;;2.88;;
27796;SDS011;15177;50.844;4.412;2023-06-26T11:46:30;8.48;;;2.17;;
27796;SDS011;15177;50.844;4.412;2023-06-26T11:48:56;3.75;;;2.15;;
27796;SDS011;15177;50.844;4.412;2023-06-26T11:51:26;6.32;;;1.90;;
27796;SDS011;15177;50.844;4.412;2023-06-26T11:53:53;5.72;;;2.30;;
27796;SDS011;15177;50.844;4.412;2023-06-26T11:56:18;7.45;;;1.92;;
27796;SDS011;15177;50.844;4.412;2023-06-26T11:59:00;8.75;;;2.60;;
27796;SDS011;15177;50.844;4.412;2023-06-26T12:01:43;8.15;;;1.70;;
27796;SDS011;15177;50.844;4.412;2023-06-26T12:04:12;5.47;;;1.75;;
27796;SDS011;15177;50.844;4.412;2023-06-26T12:06:41;11.50;;;1.60;;
27796;SDS011;15177;50.844;4.412;2023-06-26T12:09:15;5.03;;;1.95;;
27796;SDS011;15177;50.844;4.412;2023-06-26T12:11:44;3.58;;;2.00;;
27796;SDS011;15177;50.844;4.412;2023-06-26T12:14:16;4.47;;;1.75;;
27796;SDS011;15177;50.844;4.412;2023-06-26T12:16:43;4.65;;;1.90;;
27796;SDS011;15177;50.844;4.412;2023-06-26T12:19:09;2.42;;;1.60;;
27796;SDS011;15177;50.844;4.412;2023-06-26T12:24:07;3.97;;;1.52;;
27796;SDS011;15177;50.844;4.412;2023-06-26T12:26:34;5.63;;;1.85;;
27796;SDS011;15177;50.844;4.412;2023-06-26T12:29:09;6.22;;;1.65;;
27796;SDS011;15177;50.844;4.412;2023-06-26T12:31:43;4.55;;;1.70;;
27796;SDS011;15177;50.844;4.412;2023-06-26T12:34:26;4.55;;;1.95;;
27796;SDS011;15177;50.844;4.412;2023-06-26T12:37:03;9.40;;;1.70;;
27796;SDS011;15177;50.844;4.412;2023-06-26T12:39:44;2.85;;;1.30;;
27796;SDS011;15177;50.844;4.412;2023-06-26T12:42:14;3.20;;;1.40;;
27796;SDS011;15177;50.844;4.412;2023-06-26T12:44:40;9.43;;;1.83;;
27796;SDS011;15177;50.844;4.412;2023-06-26T12:47:15;4.25;;;1.48;;
27796;SDS011;15177;50.844;4.412;2023-06-26T12:49:45;7.22;;;1.73;;
27796;SDS011;15177;50.844;4.412;2023-06-26T12:52:18;2.78;;;1.50;;
27796;SDS011;15177;50.844;4.412;2023-06-26T12:54:45;6.25;;;1.52;;
27796;SDS011;15177;50.844;4.412;2023-06-26T12:57:12;5.20;;;1.80;;
27796;SDS011;15177;50.844;4.412;2023-06-26T12:59:40;4.35;;;1.52;;
27796;SDS011;15177;50.844;4.412;2023-06-26T13:02:07;5.15;;;1.63;;
27796;SDS011;15177;50.844;4.412;2023-06-26T13:04:34;6.35;;;1.77;;
27796;SDS011;15177;50.844;4.412;2023-06-26T13:07:00;10.57;;;2.08;;
27796;SDS011;15177;50.844;4.412;2023-06-26T13:09:26;5.53;;;1.63;;
27796;SDS011;15177;50.844;4.412;2023-06-26T13:11:53;6.80;;;1.90;;
27796;SDS011;15177;50.844;4.412;2023-06-26T13:14:20;5.20;;;1.70;;
27796;SDS011;15177;50.844;4.412;2023-06-26T13:16:46;5.78;;;1.60;;
27796;SDS011;15177;50.844;4.412;2023-06-26T13:19:13;6.57;;;1.75;;
27796;SDS011;15177;50.844;4.412;2023-06-26T13:21:38;5.38;;;1.67;;
27796;SDS011;15177;50.844;4.412;2023-06-26T13:24:04;4.75;;;2.10;;
27796;SDS011;15177;50.844;4.412;2023-06-26T13:26:30;5.55;;;1.80;;
27796;SDS011;15177;50.844;4.412;2023-06-26T13:28:58;7.43;;;1.80;;
27796;SDS011;15177;50.844;4.412;2023-06-26T13:31:31;5.13;;;2.05;;
27796;SDS011;15177;50.844;4.412;2023-06-26T13:33:58;9.35;;;1.90;;
27796;SDS011;15177;50.844;4.412;2023-06-26T13:36:24;7.78;;;2.08;;
27796;SDS011;15177;50.844;4.412;2023-06-26T13:38:53;7.85;;;1.50;;
27796;SDS011;15177;50.844;4.412;2023-06-26T13:41:22;7.82;;;2.00;;
27796;SDS011;15177;50.844;4.412;2023-06-26T13:43:50;5.50;;;1.67;;
27796;SDS011;15177;50.844;4.412;2023-06-26T13:46:18;6.00;;;1.75;;
27796;SDS011;15177;50.844;4.412;2023-06-26T13:48:45;4.03;;;2.00;;
27796;SDS011;15177;50.844;4.412;2023-06-26T13:51:11;6.95;;;1.85;;
27796;SDS011;15177;50.844;4.412;2023-06-26T13:53:37;5.38;;;1.77;;
27796;SDS011;15177;50.844;4.412;2023-06-26T13:56:02;6.13;;;1.92;;
27796;SDS011;15177;50.844;4.412;2023-06-26T13:58:30;8.32;;;2.00;;
27796;SDS011;15177;50.844;4.412;2023-06-26T14:00:57;4.78;;;2.00;;
27796;SDS011;15177;50.844;4.412;2023-06-26T14:03:30;6.35;;;2.08;;
27796;SDS011;15177;50.844;4.412;2023-06-26T14:05:59;9.23;;;1.60;;
27796;SDS011;15177;50.844;4.412;2023-06-26T14:08:24;7.15;;;1.63;;
27796;SDS011;15177;50.844;4.412;2023-06-26T14:10:50;5.57;;;1.70;;
27796;SDS011;15177;50.844;4.412;2023-06-26T14:13:16;7.68;;;1.63;;
27796;SDS011;15177;50.844;4.412;2023-06-26T14:15:42;6.22;;;1.30;;
27796;SDS011;15177;50.844;4.412;2023-06-26T14:18:08;2.58;;;1.40;;
27796;SDS011;15177;50.844;4.412;2023-06-26T14:20:35;7.55;;;1.90;;
27796;SDS011;15177;50.844;4.412;2023-06-26T14:23:03;6.30;;;1.23;;
27796;SDS011;15177;50.844;4.412;2023-06-26T14:25:28;3.33;;;1.52;;
27796;SDS011;15177;50.844;4.412;2023-06-26T14:27:58;6.07;;;1.40;;
27796;SDS011;15177;50.844;4.412;2023-06-26T14:30:24;5.70;;;1.73;;
27796;SDS011;15177;50.844;4.412;2023-06-26T14:32:51;8.90;;;2.35;;
27796;SDS011;15177;50.844;4.412;2023-06-26T14:35:18;4.82;;;1.58;;
27796;SDS011;15177;50.844;4.412;2023-06-26T14:37:47;5.95;;;1.73;;
27796;SDS011;15177;50.844;4.412;2023-06-26T14:40:15;8.82;;;1.88;;
27796;SDS011;15177;50.844;4.412;2023-06-26T14:42:43;11.73;;;2.15;;
27796;SDS011;15177;50.844;4.412;2023-06-26T14:45:10;6.57;;;1.83;;
27796;SDS011;15177;50.844;4.412;2023-06-26T14:47:36;10.23;;;2.20;;
27796;SDS011;15177;50.844;4.412;2023-06-26T14:50:02;4.93;;;1.77;;
27796;SDS011;15177;50.844;4.412;2023-06-26T14:52:28;6.32;;;1.90;;
27796;SDS011;15177;50.844;4.412;2023-06-26T14:54:54;4.18;;;1.80;;
27796;SDS011;15177;50.844;4.412;2023-06-26T14:57:20;7.07;;;1.50;;
27796;SDS011;15177;50.844;4.412;2023-06-26T14:59:47;9.43;;;1.98;;
27796;SDS011;15177;50.844;4.412;2023-06-26T15:02:14;8.68;;;2.30;;
27796;SDS011;15177;50.844;4.412;2023-06-26T15:04:40;6.13;;;1.92;;